• Join FlightAware (Why Join?)
  • Login
  • US Flag 
07:46AM EDT


 

Airport Tracker/Info


-or-


 

Live Flight TrackerFlight Track Log ✈ KAL1335 ✈ 17-Mar-2014 ✈ RKSS / GMP - RKJY / RSU

Flight Track Log - Related Links

Times and Time Zones

All times are in EDT time to prevent confusion due to time zone crossing. See the KAL1335 flight status page for this flight to view local times or setup timezone preferences in your user account.

Time Position Orientation Groundspeed Altitude Reporting Facility
EDT Latitude Longitude Course Direction KTS MPH feet Rate Location/Type
12:38AM 37.5109 126.8534 136° Southeast 173 199 3,600  Level FlightAware ADS-B (RKSM / SSN)
12:38AM 37.5020 126.8619 151° Southeast 192 221 3,800 840 Climbing FlightAware ADS-B (RKSM / SSN)
12:38AM 37.4961 126.8651 164° South 198 228 3,900 1,200 Climbing FlightAware ADS-B (RKSM / SSN)
12:38AM 37.4917 126.8659 174° South 201 231 4,000 1,260 Climbing FlightAware ADS-B (RKSM / SSN)
12:38AM 37.4770 126.8666 176° South 222 255 4,300 1,200 Climbing FlightAware ADS-B (RKSM / SSN)
12:38AM 37.4611 126.8680 175° South 243 280 4,600 1,980 Climbing FlightAware ADS-B (RKSM / SSN)
12:39AM 37.4440 126.8697 175° South 249 287 5,300 2,400 Climbing FlightAware ADS-B (RKSM / SSN)
12:39AM 37.4268 126.8715 175° South 254 292 5,800 1,380 Climbing FlightAware ADS-B (RKSM / SSN)
12:39AM 37.4087 126.8733 175° South 257 296 6,000 1,380 Climbing FlightAware ADS-B (RKSM / SSN)
12:39AM 37.3909 126.8750 175° South 258 297 6,500 2,580 Climbing FlightAware ADS-B (RKSM / SSN)
12:40AM 37.3737 126.8767 175° South 255 293 7,300 2,580 Climbing FlightAware ADS-B (RKSM / SSN)
12:40AM 37.3566 126.8785 175° South 258 297 7,800 1,200 Climbing FlightAware ADS-B (RKSM / SSN)
12:40AM 37.3384 126.8803 175° South 260 299 7,900 180 Climbing FlightAware ADS-B (RKSM / SSN)
12:41AM 37.3200 126.8821 175° South 258 297 7,900 120 Level FlightAware ADS-B (RKSM / SSN)
12:41AM 37.2966 126.8843 175° South 261 300 8,000 1,080 Climbing FlightAware ADS-B (RKSM / SSN)
12:41AM 37.2782 126.8861 175° South 262 302 8,500 2,160 Climbing FlightAware ADS-B (RKSM / SSN)
12:41AM 37.2607 126.8878 175° South 267 307 9,100 2,760 Climbing FlightAware ADS-B (RKSM / SSN)
12:42AM 37.2440 126.8895 175° South 270 311 9,900 3,180 Climbing FlightAware ADS-B (RKSM / SSN)
12:44AM 37.0742 126.9423 166° South  Level Estimated
12:45AM 36.9864 126.9695 166° South  Level Estimated
12:46AM 36.8986 126.9966 166° South  Level Estimated
12:47AM 36.8013 127.0266 166° South  Level Estimated
12:48AM 36.7040 127.0565 166° South  Level Estimated
12:49AM 36.6068 127.0863 166° South  Level Estimated
12:50AM 36.5095 127.1161 166° South  Level Estimated
12:51AM 36.4122 127.1458 166° South  Level Estimated
12:52AM 36.3149 127.1754 166° South  Level Estimated
12:53AM 36.2176 127.2049 166° South  Level Estimated
12:54AM 36.1203 127.2344 166° South  Level Estimated
12:55AM 36.0230 127.2638 166° South  Level Estimated
12:56AM 35.9257 127.2931 166° South  Level Estimated
12:57AM 35.8284 127.3224 166° South  Level Estimated
12:58AM 35.7310 127.3515 166° South  Level Estimated
12:59AM 35.6337 127.3807 166° South  Level Estimated
01:00AM 35.5363 127.4097 166° South  Level Estimated
01:01AM 35.4390 127.4387 166° South  Level Estimated
01:02AM 35.3416 127.4675 166° South  Level Estimated
01:03AM 35.2443 127.4964 166° South  Level Estimated
01:04AM 35.1469 127.5251 166° South  Level Estimated
01:05AM 35.0495 127.5538 166° South  Level Estimated
01:06AM 34.9521 127.5824 166° South  Level Estimated
01:07AM 34.8547 127.6110 166° South  Level Estimated
01:08AM 34.8398 127.6153 166° South  Level Estimated
01:09AM 34.8398 127.6153 North  Level Estimated
01:10AM 34.8398 127.6153 North  Level Estimated
01:11AM 34.8398 127.6153 North  Level Estimated
01:12AM 34.8398 127.6153 North  Level Estimated
01:13AM 34.8398 127.6153 North  Level Estimated
01:14AM 34.8398 127.6153 North  Level Estimated
01:15AM 34.8398 127.6153 North  Level Estimated
01:16AM 34.8398 127.6153 North  Level Estimated
01:17AM 34.8398 127.6153 North  Level Estimated
01:18AM 34.8398 127.6153 North  Level Estimated
01:19AM 34.8398 127.6153 North  Level Estimated